sensor_id;sensor_type;location;lat;lon;timestamp;P1;durP1;ratioP1;P2;durP2;ratioP2
9643;SDS011;4860;50.900;4.720;2023-02-01T00:01:44;0.20;;;0.20;;
9643;SDS011;4860;50.900;4.720;2023-02-01T00:04:11;0.20;;;0.20;;
9643;SDS011;4860;50.900;4.720;2023-02-01T00:06:38;0.20;;;0.20;;
9643;SDS011;4860;50.900;4.720;2023-02-01T00:09:04;0.20;;;0.20;;
9643;SDS011;4860;50.900;4.720;2023-02-01T00:11:30;0.30;;;0.30;;
9643;SDS011;4860;50.900;4.720;2023-02-01T00:13:56;0.30;;;0.30;;
9643;SDS011;4860;50.900;4.720;2023-02-01T00:16:27;0.30;;;0.30;;
9643;SDS011;4860;50.900;4.720;2023-02-01T00:19:12;0.28;;;0.28;;
9643;SDS011;4860;50.900;4.720;2023-02-01T00:21:39;0.30;;;0.30;;
9643;SDS011;4860;50.900;4.720;2023-02-01T00:24:05;0.20;;;0.20;;
9643;SDS011;4860;50.900;4.720;2023-02-01T00:26:33;0.30;;;0.30;;
9643;SDS011;4860;50.900;4.720;2023-02-01T00:29:00;0.30;;;0.30;;
9643;SDS011;4860;50.900;4.720;2023-02-01T00:31:26;0.30;;;0.30;;
9643;SDS011;4860;50.900;4.720;2023-02-01T00:33:52;0.20;;;0.20;;
9643;SDS011;4860;50.900;4.720;2023-02-01T00:36:18;0.20;;;0.20;;
9643;SDS011;4860;50.900;4.720;2023-02-01T00:38:45;0.20;;;0.20;;
9643;SDS011;4860;50.900;4.720;2023-02-01T00:41:12;0.30;;;0.30;;
9643;SDS011;4860;50.900;4.720;2023-02-01T00:43:38;0.20;;;0.20;;
9643;SDS011;4860;50.900;4.720;2023-02-01T00:46:04;0.30;;;0.30;;
9643;SDS011;4860;50.900;4.720;2023-02-01T00:48:31;0.30;;;0.30;;
9643;SDS011;4860;50.900;4.720;2023-02-01T00:51:04;0.30;;;0.30;;
9643;SDS011;4860;50.900;4.720;2023-02-01T00:53:31;0.20;;;0.20;;
9643;SDS011;4860;50.900;4.720;2023-02-01T00:55:57;0.30;;;0.30;;
9643;SDS011;4860;50.900;4.720;2023-02-01T00:58:24;0.30;;;0.30;;
9643;SDS011;4860;50.900;4.720;2023-02-01T01:01:07;0.25;;;0.25;;
9643;SDS011;4860;50.900;4.720;2023-02-01T01:03:34;0.30;;;0.30;;
9643;SDS011;4860;50.900;4.720;2023-02-01T01:06:01;0.30;;;0.30;;
9643;SDS011;4860;50.900;4.720;2023-02-01T01:08:28;0.30;;;0.30;;
9643;SDS011;4860;50.900;4.720;2023-02-01T01:10:54;0.30;;;0.30;;
9643;SDS011;4860;50.900;4.720;2023-02-01T01:13:20;0.30;;;0.30;;
9643;SDS011;4860;50.900;4.720;2023-02-01T01:15:47;0.30;;;0.30;;
9643;SDS011;4860;50.900;4.720;2023-02-01T01:18:13;0.30;;;0.30;;
9643;SDS011;4860;50.900;4.720;2023-02-01T01:20:40;0.20;;;0.20;;
9643;SDS011;4860;50.900;4.720;2023-02-01T01:23:07;0.20;;;0.20;;
9643;SDS011;4860;50.900;4.720;2023-02-01T01:25:36;0.30;;;0.30;;
9643;SDS011;4860;50.900;4.720;2023-02-01T01:28:02;0.30;;;0.30;;
9643;SDS011;4860;50.900;4.720;2023-02-01T01:30:29;0.30;;;0.30;;
9643;SDS011;4860;50.900;4.720;2023-02-01T01:32:55;0.30;;;0.30;;
9643;SDS011;4860;50.900;4.720;2023-02-01T01:35:21;0.30;;;0.30;;
9643;SDS011;4860;50.900;4.720;2023-02-01T01:37:47;0.20;;;0.20;;
9643;SDS011;4860;50.900;4.720;2023-02-01T01:40:14;0.30;;;0.30;;
9643;SDS011;4860;50.900;4.720;2023-02-01T01:42:41;0.30;;;0.30;;
9643;SDS011;4860;50.900;4.720;2023-02-01T01:45:25;0.30;;;0.30;;
9643;SDS011;4860;50.900;4.720;2023-02-01T01:47:52;0.30;;;0.30;;
9643;SDS011;4860;50.900;4.720;2023-02-01T01:50:20;0.30;;;0.30;;
9643;SDS011;4860;50.900;4.720;2023-02-01T01:52:49;0.30;;;0.30;;
9643;SDS011;4860;50.900;4.720;2023-02-01T01:55:16;0.30;;;0.30;;
9643;SDS011;4860;50.900;4.720;2023-02-01T01:57:44;0.30;;;0.30;;
9643;SDS011;4860;50.900;4.720;2023-02-01T02:00:13;0.20;;;0.20;;
9643;SDS011;4860;50.900;4.720;2023-02-01T02:02:40;0.40;;;0.40;;
9643;SDS011;4860;50.900;4.720;2023-02-01T02:05:08;0.30;;;0.30;;
9643;SDS011;4860;50.900;4.720;2023-02-01T02:07:35;0.30;;;0.30;;
9643;SDS011;4860;50.900;4.720;2023-02-01T02:10:06;0.30;;;0.30;;
9643;SDS011;4860;50.900;4.720;2023-02-01T02:12:37;0.20;;;0.20;;
9643;SDS011;4860;50.900;4.720;2023-02-01T02:15:04;0.20;;;0.20;;
9643;SDS011;4860;50.900;4.720;2023-02-01T02:28:37;0.30;;;0.30;;
9643;SDS011;4860;50.900;4.720;2023-02-01T02:36:02;0.30;;;0.30;;
9643;SDS011;4860;50.900;4.720;2023-02-01T02:38:47;0.30;;;0.30;;
9643;SDS011;4860;50.900;4.720;2023-02-01T02:41:16;0.30;;;0.30;;
9643;SDS011;4860;50.900;4.720;2023-02-01T02:44:12;0.30;;;0.30;;
9643;SDS011;4860;50.900;4.720;2023-02-01T02:47:00;0.30;;;0.30;;
9643;SDS011;4860;50.900;4.720;2023-02-01T02:49:51;0.30;;;0.30;;
9643;SDS011;4860;50.900;4.720;2023-02-01T02:52:39;0.30;;;0.30;;
9643;SDS011;4860;50.900;4.720;2023-02-01T02:55:28;0.30;;;0.30;;
9643;SDS011;4860;50.900;4.720;2023-02-01T02:57:56;0.30;;;0.30;;
9643;SDS011;4860;50.900;4.720;2023-02-01T03:00:43;0.30;;;0.30;;
9643;SDS011;4860;50.900;4.720;2023-02-01T03:03:28;0.30;;;0.30;;
9643;SDS011;4860;50.900;4.720;2023-02-01T03:06:16;0.30;;;0.30;;
9643;SDS011;4860;50.900;4.720;2023-02-01T03:08:43;0.30;;;0.30;;
9643;SDS011;4860;50.900;4.720;2023-02-01T03:11:14;0.30;;;0.30;;
9643;SDS011;4860;50.900;4.720;2023-02-01T03:16:12;0.30;;;0.30;;
9643;SDS011;4860;50.900;4.720;2023-02-01T03:18:51;0.22;;;0.22;;
9643;SDS011;4860;50.900;4.720;2023-02-01T03:21:26;0.40;;;0.40;;
9643;SDS011;4860;50.900;4.720;2023-02-01T03:23:56;0.30;;;0.30;;
9643;SDS011;4860;50.900;4.720;2023-02-01T03:26:23;0.30;;;0.30;;
9643;SDS011;4860;50.900;4.720;2023-02-01T03:28:54;0.30;;;0.30;;
9643;SDS011;4860;50.900;4.720;2023-02-01T03:31:22;0.30;;;0.30;;
9643;SDS011;4860;50.900;4.720;2023-02-01T03:33:48;0.38;;;0.38;;
9643;SDS011;4860;50.900;4.720;2023-02-01T03:36:15;0.30;;;0.30;;
9643;SDS011;4860;50.900;4.720;2023-02-01T03:38:49;0.30;;;0.30;;
9643;SDS011;4860;50.900;4.720;2023-02-01T03:46:12;0.30;;;0.30;;
9643;SDS011;4860;50.900;4.720;2023-02-01T03:48:41;0.30;;;0.30;;
9643;SDS011;4860;50.900;4.720;2023-02-01T03:51:08;0.20;;;0.20;;
9643;SDS011;4860;50.900;4.720;2023-02-01T03:53:35;0.30;;;0.30;;
9643;SDS011;4860;50.900;4.720;2023-02-01T03:56:02;0.30;;;0.30;;
9643;SDS011;4860;50.900;4.720;2023-02-01T03:58:28;0.30;;;0.30;;
9643;SDS011;4860;50.900;4.720;2023-02-01T04:00:55;0.30;;;0.30;;
9643;SDS011;4860;50.900;4.720;2023-02-01T04:03:22;0.30;;;0.30;;
9643;SDS011;4860;50.900;4.720;2023-02-01T04:05:50;0.30;;;0.30;;
9643;SDS011;4860;50.900;4.720;2023-02-01T04:08:17;0.30;;;0.30;;
9643;SDS011;4860;50.900;4.720;2023-02-01T04:10:43;0.30;;;0.30;;
9643;SDS011;4860;50.900;4.720;2023-02-01T04:13:09;0.30;;;0.30;;
9643;SDS011;4860;50.900;4.720;2023-02-01T04:15:36;0.30;;;0.30;;
9643;SDS011;4860;50.900;4.720;2023-02-01T04:18:02;0.38;;;0.38;;
9643;SDS011;4860;50.900;4.720;2023-02-01T04:20:28;0.30;;;0.30;;
9643;SDS011;4860;50.900;4.720;2023-02-01T04:22:54;0.30;;;0.30;;
9643;SDS011;4860;50.900;4.720;2023-02-01T04:25:20;0.28;;;0.28;;
9643;SDS011;4860;50.900;4.720;2023-02-01T04:27:46;0.30;;;0.30;;
9643;SDS011;4860;50.900;4.720;2023-02-01T04:30:13;0.20;;;0.20;;
9643;SDS011;4860;50.900;4.720;2023-02-01T04:32:39;0.32;;;0.32;;
9643;SDS011;4860;50.900;4.720;2023-02-01T04:35:06;0.30;;;0.30;;
9643;SDS011;4860;50.900;4.720;2023-02-01T04:37:32;0.30;;;0.30;;
9643;SDS011;4860;50.900;4.720;2023-02-01T04:39:58;0.30;;;0.30;;
9643;SDS011;4860;50.900;4.720;2023-02-01T04:42:25;0.30;;;0.30;;
9643;SDS011;4860;50.900;4.720;2023-02-01T04:44:51;0.30;;;0.30;;
9643;SDS011;4860;50.900;4.720;2023-02-01T04:47:17;0.30;;;0.30;;
9643;SDS011;4860;50.900;4.720;2023-02-01T04:49:43;0.30;;;0.30;;
9643;SDS011;4860;50.900;4.720;2023-02-01T04:52:09;0.30;;;0.30;;
9643;SDS011;4860;50.900;4.720;2023-02-01T04:54:35;0.30;;;0.30;;
9643;SDS011;4860;50.900;4.720;2023-02-01T04:57:01;0.40;;;0.40;;
9643;SDS011;4860;50.900;4.720;2023-02-01T04:59:28;0.30;;;0.30;;
9643;SDS011;4860;50.900;4.720;2023-02-01T05:01:54;0.30;;;0.30;;
9643;SDS011;4860;50.900;4.720;2023-02-01T05:04:20;0.30;;;0.30;;
9643;SDS011;4860;50.900;4.720;2023-02-01T05:06:46;0.30;;;0.30;;
9643;SDS011;4860;50.900;4.720;2023-02-01T05:09:12;0.40;;;0.40;;
9643;SDS011;4860;50.900;4.720;2023-02-01T05:11:38;0.30;;;0.30;;
9643;SDS011;4860;50.900;4.720;2023-02-01T05:14:23;0.30;;;0.30;;
9643;SDS011;4860;50.900;4.720;2023-02-01T05:16:49;0.30;;;0.30;;
9643;SDS011;4860;50.900;4.720;2023-02-01T05:19:15;0.30;;;0.30;;
9643;SDS011;4860;50.900;4.720;2023-02-01T05:21:41;0.30;;;0.30;;
9643;SDS011;4860;50.900;4.720;2023-02-01T05:24:08;0.30;;;0.30;;
9643;SDS011;4860;50.900;4.720;2023-02-01T05:26:34;0.40;;;0.40;;
9643;SDS011;4860;50.900;4.720;2023-02-01T05:29:01;0.40;;;0.40;;
9643;SDS011;4860;50.900;4.720;2023-02-01T05:31:27;0.40;;;0.40;;
9643;SDS011;4860;50.900;4.720;2023-02-01T05:33:53;0.40;;;0.40;;
9643;SDS011;4860;50.900;4.720;2023-02-01T05:36:19;0.30;;;0.30;;
9643;SDS011;4860;50.900;4.720;2023-02-01T05:38:46;0.30;;;0.30;;
9643;SDS011;4860;50.900;4.720;2023-02-01T05:41:12;0.30;;;0.30;;
9643;SDS011;4860;50.900;4.720;2023-02-01T05:43:38;0.30;;;0.30;;
9643;SDS011;4860;50.900;4.720;2023-02-01T05:46:04;0.30;;;0.30;;
9643;SDS011;4860;50.900;4.720;2023-02-01T05:48:30;0.30;;;0.30;;
9643;SDS011;4860;50.900;4.720;2023-02-01T05:50:58;0.30;;;0.30;;
9643;SDS011;4860;50.900;4.720;2023-02-01T05:53:24;0.30;;;0.30;;
9643;SDS011;4860;50.900;4.720;2023-02-01T05:55:50;0.37;;;0.37;;
9643;SDS011;4860;50.900;4.720;2023-02-01T05:58:16;0.30;;;0.30;;
9643;SDS011;4860;50.900;4.720;2023-02-01T06:00:42;0.30;;;0.30;;
9643;SDS011;4860;50.900;4.720;2023-02-01T06:03:09;0.40;;;0.40;;
9643;SDS011;4860;50.900;4.720;2023-02-01T06:05:35;0.30;;;0.30;;
9643;SDS011;4860;50.900;4.720;2023-02-01T06:08:02;0.30;;;0.30;;
9643;SDS011;4860;50.900;4.720;2023-02-01T06:10:28;0.30;;;0.30;;
9643;SDS011;4860;50.900;4.720;2023-02-01T06:12:54;0.30;;;0.30;;
9643;SDS011;4860;50.900;4.720;2023-02-01T06:15:20;0.30;;;0.30;;
9643;SDS011;4860;50.900;4.720;2023-02-01T06:17:46;0.30;;;0.30;;
9643;SDS011;4860;50.900;4.720;2023-02-01T06:20:14;0.40;;;0.40;;
9643;SDS011;4860;50.900;4.720;2023-02-01T06:22:40;0.40;;;0.40;;
9643;SDS011;4860;50.900;4.720;2023-02-01T06:25:07;0.30;;;0.30;;
9643;SDS011;4860;50.900;4.720;2023-02-01T06:27:34;0.30;;;0.30;;
9643;SDS011;4860;50.900;4.720;2023-02-01T06:30:01;0.30;;;0.30;;
9643;SDS011;4860;50.900;4.720;2023-02-01T06:32:27;0.30;;;0.30;;
9643;SDS011;4860;50.900;4.720;2023-02-01T06:34:53;0.30;;;0.30;;
9643;SDS011;4860;50.900;4.720;2023-02-01T06:37:21;0.33;;;0.33;;
9643;SDS011;4860;50.900;4.720;2023-02-01T06:39:48;0.40;;;0.40;;
9643;SDS011;4860;50.900;4.720;2023-02-01T06:42:14;0.30;;;0.30;;
9643;SDS011;4860;50.900;4.720;2023-02-01T06:44:40;0.40;;;0.40;;
9643;SDS011;4860;50.900;4.720;2023-02-01T06:47:06;0.40;;;0.40;;
9643;SDS011;4860;50.900;4.720;2023-02-01T06:49:33;0.30;;;0.30;;
9643;SDS011;4860;50.900;4.720;2023-02-01T06:51:59;0.30;;;0.30;;
9643;SDS011;4860;50.900;4.720;2023-02-01T06:54:28;0.30;;;0.30;;
9643;SDS011;4860;50.900;4.720;2023-02-01T06:56:57;0.30;;;0.30;;
9643;SDS011;4860;50.900;4.720;2023-02-01T06:59:23;0.40;;;0.40;;
9643;SDS011;4860;50.900;4.720;2023-02-01T07:01:49;0.30;;;0.30;;
9643;SDS011;4860;50.900;4.720;2023-02-01T07:04:16;0.30;;;0.30;;
9643;SDS011;4860;50.900;4.720;2023-02-01T07:06:42;0.37;;;0.37;;
9643;SDS011;4860;50.900;4.720;2023-02-01T07:09:08;0.40;;;0.40;;
9643;SDS011;4860;50.900;4.720;2023-02-01T07:11:34;0.30;;;0.30;;
9643;SDS011;4860;50.900;4.720;2023-02-01T07:14:02;0.40;;;0.40;;
9643;SDS011;4860;50.900;4.720;2023-02-01T07:16:28;0.40;;;0.40;;
9643;SDS011;4860;50.900;4.720;2023-02-01T07:18:56;0.30;;;0.30;;
9643;SDS011;4860;50.900;4.720;2023-02-01T07:21:22;0.33;;;0.33;;
9643;SDS011;4860;50.900;4.720;2023-02-01T07:23:48;0.40;;;0.40;;
9643;SDS011;4860;50.900;4.720;2023-02-01T07:26:14;0.30;;;0.30;;
9643;SDS011;4860;50.900;4.720;2023-02-01T07:28:41;0.33;;;0.33;;
9643;SDS011;4860;50.900;4.720;2023-02-01T07:31:08;0.40;;;0.40;;
9643;SDS011;4860;50.900;4.720;2023-02-01T07:33:35;0.40;;;0.40;;
9643;SDS011;4860;50.900;4.720;2023-02-01T07:36:02;0.40;;;0.40;;
9643;SDS011;4860;50.900;4.720;2023-02-01T07:38:29;0.40;;;0.40;;
9643;SDS011;4860;50.900;4.720;2023-02-01T07:40:59;0.30;;;0.30;;
9643;SDS011;4860;50.900;4.720;2023-02-01T07:43:26;0.30;;;0.30;;
9643;SDS011;4860;50.900;4.720;2023-02-01T07:45:53;0.30;;;0.30;;
9643;SDS011;4860;50.900;4.720;2023-02-01T07:48:20;0.30;;;0.30;;
9643;SDS011;4860;50.900;4.720;2023-02-01T07:50:46;0.30;;;0.30;;
9643;SDS011;4860;50.900;4.720;2023-02-01T07:53:12;0.30;;;0.30;;
9643;SDS011;4860;50.900;4.720;2023-02-01T07:55:39;0.33;;;0.33;;
9643;SDS011;4860;50.900;4.720;2023-02-01T07:58:05;0.30;;;0.30;;
9643;SDS011;4860;50.900;4.720;2023-02-01T08:00:32;0.30;;;0.30;;
9643;SDS011;4860;50.900;4.720;2023-02-01T08:03:19;0.30;;;0.30;;
9643;SDS011;4860;50.900;4.720;2023-02-01T08:05:46;0.32;;;0.32;;
9643;SDS011;4860;50.900;4.720;2023-02-01T08:08:12;0.30;;;0.30;;
9643;SDS011;4860;50.900;4.720;2023-02-01T08:10:38;0.30;;;0.30;;
9643;SDS011;4860;50.900;4.720;2023-02-01T08:13:04;0.30;;;0.30;;
9643;SDS011;4860;50.900;4.720;2023-02-01T08:15:30;0.30;;;0.30;;
9643;SDS011;4860;50.900;4.720;2023-02-01T08:17:56;0.30;;;0.30;;
9643;SDS011;4860;50.900;4.720;2023-02-01T08:20:23;0.30;;;0.30;;
9643;SDS011;4860;50.900;4.720;2023-02-01T08:22:51;0.30;;;0.30;;
9643;SDS011;4860;50.900;4.720;2023-02-01T08:25:17;0.30;;;0.30;;
9643;SDS011;4860;50.900;4.720;2023-02-01T08:27:43;0.30;;;0.30;;
9643;SDS011;4860;50.900;4.720;2023-02-01T08:30:10;0.20;;;0.20;;
9643;SDS011;4860;50.900;4.720;2023-02-01T08:32:36;0.30;;;0.30;;
9643;SDS011;4860;50.900;4.720;2023-02-01T08:35:03;0.30;;;0.30;;
9643;SDS011;4860;50.900;4.720;2023-02-01T08:37:29;0.30;;;0.30;;
9643;SDS011;4860;50.900;4.720;2023-02-01T08:39:55;0.30;;;0.30;;
9643;SDS011;4860;50.900;4.720;2023-02-01T08:42:22;0.30;;;0.30;;
9643;SDS011;4860;50.900;4.720;2023-02-01T08:45:06;0.30;;;0.30;;
9643;SDS011;4860;50.900;4.720;2023-02-01T08:47:33;0.25;;;0.25;;
9643;SDS011;4860;50.900;4.720;2023-02-01T08:50:00;0.30;;;0.30;;
9643;SDS011;4860;50.900;4.720;2023-02-01T08:52:26;0.30;;;0.30;;
9643;SDS011;4860;50.900;4.720;2023-02-01T08:54:52;0.30;;;0.30;;
9643;SDS011;4860;50.900;4.720;2023-02-01T08:57:18;0.30;;;0.30;;
9643;SDS011;4860;50.900;4.720;2023-02-01T08:59:44;0.30;;;0.30;;
9643;SDS011;4860;50.900;4.720;2023-02-01T09:02:12;0.30;;;0.30;;
9643;SDS011;4860;50.900;4.720;2023-02-01T09:04:38;0.30;;;0.30;;
9643;SDS011;4860;50.900;4.720;2023-02-01T09:07:04;0.30;;;0.30;;
9643;SDS011;4860;50.900;4.720;2023-02-01T09:09:30;0.30;;;0.30;;
9643;SDS011;4860;50.900;4.720;2023-02-01T09:11:56;0.30;;;0.30;;
9643;SDS011;4860;50.900;4.720;2023-02-01T09:14:23;0.30;;;0.30;;
9643;SDS011;4860;50.900;4.720;2023-02-01T09:16:49;0.40;;;0.40;;
9643;SDS011;4860;50.900;4.720;2023-02-01T09:19:15;0.30;;;0.30;;
9643;SDS011;4860;50.900;4.720;2023-02-01T09:21:41;0.30;;;0.30;;
9643;SDS011;4860;50.900;4.720;2023-02-01T09:24:09;0.30;;;0.30;;
9643;SDS011;4860;50.900;4.720;2023-02-01T09:26:36;0.30;;;0.30;;
9643;SDS011;4860;50.900;4.720;2023-02-01T09:29:02;0.30;;;0.30;;
9643;SDS011;4860;50.900;4.720;2023-02-01T09:31:29;0.30;;;0.30;;
9643;SDS011;4860;50.900;4.720;2023-02-01T09:33:56;0.30;;;0.30;;
9643;SDS011;4860;50.900;4.720;2023-02-01T09:36:22;0.30;;;0.30;;
9643;SDS011;4860;50.900;4.720;2023-02-01T09:38:49;0.30;;;0.30;;
9643;SDS011;4860;50.900;4.720;2023-02-01T09:41:29;0.30;;;0.30;;
9643;SDS011;4860;50.900;4.720;2023-02-01T09:44:17;0.30;;;0.30;;
9643;SDS011;4860;50.900;4.720;2023-02-01T09:46:45;0.30;;;0.30;;
9643;SDS011;4860;50.900;4.720;2023-02-01T09:49:12;0.20;;;0.20;;
9643;SDS011;4860;50.900;4.720;2023-02-01T09:51:41;0.30;;;0.30;;
9643;SDS011;4860;50.900;4.720;2023-02-01T09:54:11;0.20;;;0.20;;
9643;SDS011;4860;50.900;4.720;2023-02-01T09:56:48;0.30;;;0.30;;
9643;SDS011;4860;50.900;4.720;2023-02-01T10:00:00;0.20;;;0.20;;
9643;SDS011;4860;50.900;4.720;2023-02-01T10:02:11;0.30;;;0.30;;
9643;SDS011;4860;50.900;4.720;2023-02-01T10:04:38;0.30;;;0.30;;
9643;SDS011;4860;50.900;4.720;2023-02-01T10:09:53;0.30;;;0.30;;
9643;SDS011;4860;50.900;4.720;2023-02-01T10:22:38;0.30;;;0.30;;
9643;SDS011;4860;50.900;4.720;2023-02-01T10:27:33;0.30;;;0.30;;
9643;SDS011;4860;50.900;4.720;2023-02-01T10:30:01;0.25;;;0.25;;
9643;SDS011;4860;50.900;4.720;2023-02-01T10:32:31;0.20;;;0.20;;
9643;SDS011;4860;50.900;4.720;2023-02-01T10:35:09;0.20;;;0.20;;
9643;SDS011;4860;50.900;4.720;2023-02-01T10:37:39;0.30;;;0.30;;
9643;SDS011;4860;50.900;4.720;2023-02-01T10:42:42;0.20;;;0.20;;
9643;SDS011;4860;50.900;4.720;2023-02-01T10:45:16;0.20;;;0.20;;
9643;SDS011;4860;50.900;4.720;2023-02-01T10:47:43;0.30;;;0.30;;
9643;SDS011;4860;50.900;4.720;2023-02-01T10:52:45;0.30;;;0.30;;
9643;SDS011;4860;50.900;4.720;2023-02-01T10:57:58;0.30;;;0.30;;
9643;SDS011;4860;50.900;4.720;2023-02-01T11:00:25;0.22;;;0.22;;
9643;SDS011;4860;50.900;4.720;2023-02-01T11:02:52;0.30;;;0.30;;
9643;SDS011;4860;50.900;4.720;2023-02-01T11:05:18;0.20;;;0.20;;
9643;SDS011;4860;50.900;4.720;2023-02-01T11:07:52;0.22;;;0.22;;
9643;SDS011;4860;50.900;4.720;2023-02-01T11:10:37;0.20;;;0.20;;
9643;SDS011;4860;50.900;4.720;2023-02-01T11:13:03;0.20;;;0.20;;
9643;SDS011;4860;50.900;4.720;2023-02-01T11:15:30;0.20;;;0.20;;
9643;SDS011;4860;50.900;4.720;2023-02-01T11:17:56;0.20;;;0.20;;
9643;SDS011;4860;50.900;4.720;2023-02-01T11:20:38;0.30;;;0.30;;
9643;SDS011;4860;50.900;4.720;2023-02-01T11:23:05;0.20;;;0.20;;
9643;SDS011;4860;50.900;4.720;2023-02-01T11:25:37;0.10;;;0.10;;
9643;SDS011;4860;50.900;4.720;2023-02-01T11:28:03;0.20;;;0.20;;
9643;SDS011;4860;50.900;4.720;2023-02-01T11:30:38;0.20;;;0.20;;
9643;SDS011;4860;50.900;4.720;2023-02-01T11:33:05;0.20;;;0.20;;
9643;SDS011;4860;50.900;4.720;2023-02-01T11:35:34;0.20;;;0.20;;
9643;SDS011;4860;50.900;4.720;2023-02-01T11:38:10;0.20;;;0.20;;
9643;SDS011;4860;50.900;4.720;2023-02-01T11:40:38;0.20;;;0.20;;
9643;SDS011;4860;50.900;4.720;2023-02-01T11:43:16;0.25;;;0.25;;
9643;SDS011;4860;50.900;4.720;2023-02-01T11:45:53;0.20;;;0.20;;
9643;SDS011;4860;50.900;4.720;2023-02-01T11:48:19;0.20;;;0.20;;
9643;SDS011;4860;50.900;4.720;2023-02-01T11:58:27;0.20;;;0.20;;
9643;SDS011;4860;50.900;4.720;2023-02-01T12:29:51;0.10;;;0.10;;
9643;SDS011;4860;50.900;4.720;2023-02-01T12:42:24;0.20;;;0.20;;
9643;SDS011;4860;50.900;4.720;2023-02-01T12:47:27;0.10;;;0.10;;
9643;SDS011;4860;50.900;4.720;2023-02-01T12:52:46;0.20;;;0.20;;
9643;SDS011;4860;50.900;4.720;2023-02-01T12:57:37;0.20;;;0.20;;
9643;SDS011;4860;50.900;4.720;2023-02-01T13:00:47;0.20;;;0.20;;
9643;SDS011;4860;50.900;4.720;2023-02-01T13:05:50;0.20;;;0.20;;
9643;SDS011;4860;50.900;4.720;2023-02-01T13:08:20;0.20;;;0.20;;
9643;SDS011;4860;50.900;4.720;2023-02-01T13:10:54;0.20;;;0.20;;
9643;SDS011;4860;50.900;4.720;2023-02-01T13:13:25;0.20;;;0.20;;
9643;SDS011;4860;50.900;4.720;2023-02-01T13:16:02;0.20;;;0.20;;
9643;SDS011;4860;50.900;4.720;2023-02-01T13:18:39;0.10;;;0.10;;
9643;SDS011;4860;50.900;4.720;2023-02-01T13:21:16;0.20;;;0.20;;
9643;SDS011;4860;50.900;4.720;2023-02-01T13:23:44;0.20;;;0.20;;
9643;SDS011;4860;50.900;4.720;2023-02-01T13:26:10;0.10;;;0.10;;
9643;SDS011;4860;50.900;4.720;2023-02-01T13:31:35;0.20;;;0.20;;
9643;SDS011;4860;50.900;4.720;2023-02-01T13:39:25;0.20;;;0.20;;
9643;SDS011;4860;50.900;4.720;2023-02-01T13:44:28;0.20;;;0.20;;
9643;SDS011;4860;50.900;4.720;2023-02-01T13:46:59;0.10;;;0.10;;
9643;SDS011;4860;50.900;4.720;2023-02-01T13:49:28;0.20;;;0.20;;
9643;SDS011;4860;50.900;4.720;2023-02-01T13:51:56;0.20;;;0.20;;
9643;SDS011;4860;50.900;4.720;2023-02-01T13:54:32;0.20;;;0.20;;
9643;SDS011;4860;50.900;4.720;2023-02-01T13:56:59;0.17;;;0.17;;
9643;SDS011;4860;50.900;4.720;2023-02-01T13:59:36;0.20;;;0.20;;
9643;SDS011;4860;50.900;4.720;2023-02-01T14:04:48;0.20;;;0.20;;
9643;SDS011;4860;50.900;4.720;2023-02-01T14:07:20;0.20;;;0.20;;
9643;SDS011;4860;50.900;4.720;2023-02-01T14:09:46;0.10;;;0.10;;
9643;SDS011;4860;50.900;4.720;2023-02-01T14:15:16;0.20;;;0.20;;
9643;SDS011;4860;50.900;4.720;2023-02-01T14:17:46;0.20;;;0.20;;
9643;SDS011;4860;50.900;4.720;2023-02-01T14:23:03;0.20;;;0.20;;
9643;SDS011;4860;50.900;4.720;2023-02-01T14:25:33;0.20;;;0.20;;
9643;SDS011;4860;50.900;4.720;2023-02-01T14:27:59;0.20;;;0.20;;
9643;SDS011;4860;50.900;4.720;2023-02-01T14:30:26;0.20;;;0.20;;
9643;SDS011;4860;50.900;4.720;2023-02-01T14:32:53;0.20;;;0.20;;
9643;SDS011;4860;50.900;4.720;2023-02-01T14:35:24;0.13;;;0.13;;
9643;SDS011;4860;50.900;4.720;2023-02-01T14:37:51;0.20;;;0.20;;
9643;SDS011;4860;50.900;4.720;2023-02-01T14:40:26;0.20;;;0.20;;
9643;SDS011;4860;50.900;4.720;2023-02-01T14:42:53;0.17;;;0.17;;
9643;SDS011;4860;50.900;4.720;2023-02-01T14:47:47;0.20;;;0.20;;
9643;SDS011;4860;50.900;4.720;2023-02-01T14:50:22;0.20;;;0.20;;
9643;SDS011;4860;50.900;4.720;2023-02-01T14:55:30;0.20;;;0.20;;
9643;SDS011;4860;50.900;4.720;2023-02-01T14:57:58;0.13;;;0.13;;
9643;SDS011;4860;50.900;4.720;2023-02-01T15:00:27;0.20;;;0.20;;
9643;SDS011;4860;50.900;4.720;2023-02-01T15:02:54;0.20;;;0.20;;
9643;SDS011;4860;50.900;4.720;2023-02-01T15:05:26;0.20;;;0.20;;
9643;SDS011;4860;50.900;4.720;2023-02-01T15:07:55;0.20;;;0.20;;
9643;SDS011;4860;50.900;4.720;2023-02-01T15:10:22;0.20;;;0.20;;
9643;SDS011;4860;50.900;4.720;2023-02-01T15:12:49;0.20;;;0.20;;
9643;SDS011;4860;50.900;4.720;2023-02-01T15:15:22;0.20;;;0.20;;
9643;SDS011;4860;50.900;4.720;2023-02-01T15:17:49;0.20;;;0.20;;
9643;SDS011;4860;50.900;4.720;2023-02-01T15:20:23;0.20;;;0.20;;
9643;SDS011;4860;50.900;4.720;2023-02-01T15:25:29;0.20;;;0.20;;
9643;SDS011;4860;50.900;4.720;2023-02-01T15:27:56;0.20;;;0.20;;
9643;SDS011;4860;50.900;4.720;2023-02-01T15:30:27;0.20;;;0.20;;
9643;SDS011;4860;50.900;4.720;2023-02-01T15:33:04;0.20;;;0.20;;
9643;SDS011;4860;50.900;4.720;2023-02-01T15:35:36;0.20;;;0.20;;
9643;SDS011;4860;50.900;4.720;2023-02-01T15:43:31;0.30;;;0.30;;
9643;SDS011;4860;50.900;4.720;2023-02-01T15:46:01;0.20;;;0.20;;
9643;SDS011;4860;50.900;4.720;2023-02-01T15:48:30;0.20;;;0.20;;
9643;SDS011;4860;50.900;4.720;2023-02-01T15:50:58;0.20;;;0.20;;
9643;SDS011;4860;50.900;4.720;2023-02-01T15:53:25;0.20;;;0.20;;
9643;SDS011;4860;50.900;4.720;2023-02-01T15:55:58;0.20;;;0.20;;
9643;SDS011;4860;50.900;4.720;2023-02-01T15:58:24;0.20;;;0.20;;
9643;SDS011;4860;50.900;4.720;2023-02-01T16:00:58;0.20;;;0.20;;
9643;SDS011;4860;50.900;4.720;2023-02-01T16:03:34;0.20;;;0.20;;
9643;SDS011;4860;50.900;4.720;2023-02-01T16:06:01;0.20;;;0.20;;
9643;SDS011;4860;50.900;4.720;2023-02-01T16:08:28;0.10;;;0.10;;
9643;SDS011;4860;50.900;4.720;2023-02-01T16:10:59;0.20;;;0.20;;
9643;SDS011;4860;50.900;4.720;2023-02-01T16:13:26;0.30;;;0.30;;
9643;SDS011;4860;50.900;4.720;2023-02-01T16:15:53;0.30;;;0.30;;
9643;SDS011;4860;50.900;4.720;2023-02-01T16:18:19;0.20;;;0.20;;
9643;SDS011;4860;50.900;4.720;2023-02-01T16:20:47;0.20;;;0.20;;
9643;SDS011;4860;50.900;4.720;2023-02-01T16:23:13;0.30;;;0.30;;
9643;SDS011;4860;50.900;4.720;2023-02-01T16:25:39;0.20;;;0.20;;
9643;SDS011;4860;50.900;4.720;2023-02-01T16:28:06;0.20;;;0.20;;
9643;SDS011;4860;50.900;4.720;2023-02-01T16:30:33;0.20;;;0.20;;
9643;SDS011;4860;50.900;4.720;2023-02-01T16:33:00;0.30;;;0.30;;
9643;SDS011;4860;50.900;4.720;2023-02-01T16:35:34;0.20;;;0.20;;
9643;SDS011;4860;50.900;4.720;2023-02-01T16:38:04;0.25;;;0.25;;
9643;SDS011;4860;50.900;4.720;2023-02-01T16:40:34;0.20;;;0.20;;
9643;SDS011;4860;50.900;4.720;2023-02-01T16:43:00;0.20;;;0.20;;
9643;SDS011;4860;50.900;4.720;2023-02-01T16:45:27;0.20;;;0.20;;
9643;SDS011;4860;50.900;4.720;2023-02-01T16:47:54;0.20;;;0.20;;
9643;SDS011;4860;50.900;4.720;2023-02-01T16:50:22;0.20;;;0.20;;
9643;SDS011;4860;50.900;4.720;2023-02-01T16:52:49;0.20;;;0.20;;
9643;SDS011;4860;50.900;4.720;2023-02-01T16:55:16;0.20;;;0.20;;
9643;SDS011;4860;50.900;4.720;2023-02-01T16:57:43;0.20;;;0.20;;
9643;SDS011;4860;50.900;4.720;2023-02-01T17:00:10;0.20;;;0.20;;
9643;SDS011;4860;50.900;4.720;2023-02-01T17:02:37;0.20;;;0.20;;
9643;SDS011;4860;50.900;4.720;2023-02-01T17:05:04;0.10;;;0.10;;
9643;SDS011;4860;50.900;4.720;2023-02-01T17:07:30;0.20;;;0.20;;
9643;SDS011;4860;50.900;4.720;2023-02-01T17:09:56;0.20;;;0.20;;
9643;SDS011;4860;50.900;4.720;2023-02-01T17:12:24;0.20;;;0.20;;
9643;SDS011;4860;50.900;4.720;2023-02-01T17:14:50;0.10;;;0.10;;
9643;SDS011;4860;50.900;4.720;2023-02-01T17:17:17;0.20;;;0.20;;
9643;SDS011;4860;50.900;4.720;2023-02-01T17:19:48;0.20;;;0.20;;
9643;SDS011;4860;50.900;4.720;2023-02-01T17:22:22;0.20;;;0.20;;
9643;SDS011;4860;50.900;4.720;2023-02-01T17:24:48;0.20;;;0.20;;
9643;SDS011;4860;50.900;4.720;2023-02-01T17:27:15;0.20;;;0.20;;
9643;SDS011;4860;50.900;4.720;2023-02-01T17:29:42;0.20;;;0.20;;
9643;SDS011;4860;50.900;4.720;2023-02-01T17:32:17;0.20;;;0.20;;
9643;SDS011;4860;50.900;4.720;2023-02-01T17:34:44;0.20;;;0.20;;
9643;SDS011;4860;50.900;4.720;2023-02-01T17:37:22;0.20;;;0.20;;
9643;SDS011;4860;50.900;4.720;2023-02-01T17:39:49;0.20;;;0.20;;
9643;SDS011;4860;50.900;4.720;2023-02-01T17:42:26;0.20;;;0.20;;